Time;durP1;ratioP1;P1;durP2;ratioP2;P2;SDS_P1;SDS_P2;PMS_P1;PMS_P2;Temp;Humidity;BMP_temperature;BMP_pressure;BME280_temperature;BME280_humidity;BME280_pressure;Samples;Min_cycle;Max_cycle;Signal;HPM_P1;HPM_P2
2024/02/25 00:00:44;;;;;;;10.57;6.57;;;;;;;;;;2064907;28;20026;-66
2024/02/25 00:02:03;;;;;;;12.95;5.90;;;;;;;;;;2063140;28;20379;-66
2024/02/25 00:03:22;;;;;;;10.90;5.97;;;;;;;;;;2065911;28;20030;-66
2024/02/25 00:04:41;;;;;;;10.98;5.78;;;;;;;;;;2066578;28;20026;-67
2024/02/25 00:06:00;;;;;;;9.93;6.13;;;;;;;;;;2065940;28;20026;-68
2024/02/25 00:07:19;;;;;;;17.08;5.85;;;;;;;;;;2066715;28;20030;-66
2024/02/25 00:08:41;;;;;;;9.32;6.55;;;;;;;;;;2065900;28;20034;-66
2024/02/25 00:10:00;;;;;;;9.88;5.60;;;;;;;;;;2066130;28;20421;-66
2024/02/25 00:11:19;;;;;;;14.75;6.80;;;;;;;;;;2066500;28;20042;-67
2024/02/25 00:12:38;;;;;;;10.52;6.05;;;;;;;;;;2066663;28;20038;-66
2024/02/25 00:13:57;;;;;;;10.25;5.65;;;;;;;;;;2069586;28;20022;-67
2024/02/25 00:15:16;;;;;;;7.45;5.65;;;;;;;;;;2073433;28;20531;-68
2024/02/25 00:16:35;;;;;;;11.32;5.50;;;;;;;;;;2069091;28;20030;-66
2024/02/25 00:17:54;;;;;;;8.88;5.93;;;;;;;;;;2069141;28;20026;-67
2024/02/25 00:19:13;;;;;;;7.32;5.30;;;;;;;;;;2066543;28;20061;-67
2024/02/25 00:20:32;;;;;;;6.15;4.72;;;;;;;;;;2067828;28;20590;-66
2024/02/25 00:21:51;;;;;;;6.38;5.78;;;;;;;;;;2068475;28;20038;-66
2024/02/25 00:23:10;;;;;;;10.25;5.75;;;;;;;;;;2067920;28;20031;-66
2024/02/25 00:24:29;;;;;;;9.95;5.90;;;;;;;;;;2065447;28;20074;-67
2024/02/25 00:25:48;;;;;;;13.52;6.35;;;;;;;;;;2068659;28;20030;-66
2024/02/25 00:27:07;;;;;;;11.25;5.57;;;;;;;;;;2068234;28;20037;-67
2024/02/25 00:28:26;;;;;;;8.98;5.55;;;;;;;;;;2066910;28;20101;-67
2024/02/25 00:29:45;;;;;;;7.93;5.72;;;;;;;;;;2067723;28;20125;-66
2024/02/25 00:31:03;;;;;;;6.80;5.53;;;;;;;;;;2064993;28;20042;-66
2024/02/25 00:32:25;;;;;;;10.95;5.47;;;;;;;;;;2065007;28;20038;-66
2024/02/25 00:33:46;;;;;;;7.22;5.90;;;;;;;;;;2064171;28;20027;-66
2024/02/25 00:35:06;;;;;;;10.05;6.20;;;;;;;;;;2065131;28;20022;-67
2024/02/25 00:36:24;;;;;;;11.18;5.80;;;;;;;;;;2068198;28;20034;-67
2024/02/25 00:37:44;;;;;;;10.40;5.72;;;;;;;;;;2066835;28;20081;-67
2024/02/25 00:39:03;;;;;;;14.15;5.47;;;;;;;;;;2066865;28;20057;-67
2024/02/25 00:40:22;;;;;;;14.93;5.95;;;;;;;;;;2067299;28;20018;-67
2024/02/25 00:41:41;;;;;;;11.00;5.50;;;;;;;;;;2068440;28;20022;-67
2024/02/25 00:43:00;;;;;;;12.70;5.15;;;;;;;;;;2066222;28;20034;-67
2024/02/25 00:44:19;;;;;;;12.90;5.93;;;;;;;;;;2068091;28;20475;-68
2024/02/25 00:45:37;;;;;;;10.75;5.70;;;;;;;;;;2064914;28;20030;-67
2024/02/25 00:46:56;;;;;;;9.43;5.43;;;;;;;;;;2064862;28;20035;-67
2024/02/25 00:48:15;;;;;;;8.05;5.18;;;;;;;;;;2068550;28;20057;-66
2024/02/25 00:49:34;;;;;;;7.65;4.85;;;;;;;;;;2067350;28;20026;-67
2024/02/25 00:50:53;;;;;;;5.80;4.72;;;;;;;;;;2066392;28;20030;-67
2024/02/25 00:52:12;;;;;;;9.68;4.97;;;;;;;;;;2067651;28;20363;-68
2024/02/25 00:53:31;;;;;;;9.77;5.35;;;;;;;;;;2065710;28;20398;-67
2024/02/25 00:54:51;;;;;;;9.43;4.80;;;;;;;;;;2112525;27;20984;-69
2024/02/25 00:56:10;;;;;;;7.80;4.70;;;;;;;;;;2089581;27;20037;-67
2024/02/25 00:57:29;;;;;;;9.98;5.07;;;;;;;;;;2067155;28;20640;-67
2024/02/25 00:58:48;;;;;;;10.18;4.80;;;;;;;;;;2065695;28;20030;-67
2024/02/25 01:00:07;;;;;;;6.25;4.90;;;;;;;;;;2067278;28;20030;-68
2024/02/25 01:01:26;;;;;;;7.40;4.57;;;;;;;;;;2066063;28;20026;-67
2024/02/25 01:02:46;;;;;;;9.73;4.97;;;;;;;;;;2067405;28;20030;-67
2024/02/25 01:04:06;;;;;;;12.93;5.07;;;;;;;;;;2068563;28;20061;-68
2024/02/25 01:05:25;;;;;;;8.50;4.90;;;;;;;;;;2066511;28;20030;-67
2024/02/25 01:06:44;;;;;;;6.70;5.00;;;;;;;;;;2064323;28;20030;-67
2024/02/25 01:08:04;;;;;;;7.55;4.47;;;;;;;;;;2067288;28;20030;-67
2024/02/25 01:09:23;;;;;;;10.10;4.25;;;;;;;;;;2066919;28;20034;-67
2024/02/25 01:10:42;;;;;;;11.48;4.50;;;;;;;;;;2066286;28;20029;-67
2024/02/25 01:12:01;;;;;;;7.65;4.30;;;;;;;;;;2068856;28;20072;-67
2024/02/25 01:13:20;;;;;;;5.40;4.35;;;;;;;;;;2065196;28;20030;-66
2024/02/25 01:14:41;;;;;;;16.77;5.13;;;;;;;;;;2065877;28;20026;-67
2024/02/25 01:16:03;;;;;;;5.10;4.30;;;;;;;;;;2068553;28;20514;-67
2024/02/25 01:17:22;;;;;;;5.43;3.92;;;;;;;;;;2066638;28;20030;-67
2024/02/25 01:18:41;;;;;;;8.13;4.38;;;;;;;;;;2064903;28;20023;-67
2024/02/25 01:20:00;;;;;;;8.10;5.10;;;;;;;;;;2067297;28;20445;-67
2024/02/25 01:21:19;;;;;;;6.22;4.00;;;;;;;;;;2063499;28;20117;-68
2024/02/25 01:22:38;;;;;;;11.18;4.47;;;;;;;;;;2066888;28;20183;-67
2024/02/25 01:23:57;;;;;;;10.88;4.72;;;;;;;;;;2066742;28;20022;-67
2024/02/25 01:25:16;;;;;;;6.10;3.67;;;;;;;;;;2067495;28;20029;-67
2024/02/25 01:26:39;;;;;;;5.53;4.03;;;;;;;;;;2067923;28;20125;-67
2024/02/25 01:27:59;;;;;;;4.53;3.80;;;;;;;;;;2068193;28;20042;-67
2024/02/25 01:29:17;;;;;;;9.43;4.80;;;;;;;;;;2064872;28;20044;-68
2024/02/25 01:30:36;;;;;;;4.78;3.92;;;;;;;;;;2066158;28;20022;-67
2024/02/25 01:31:56;;;;;;;9.40;4.93;;;;;;;;;;2068594;28;20942;-67
2024/02/25 01:33:15;;;;;;;8.90;4.45;;;;;;;;;;2066733;28;20029;-68
2024/02/25 01:34:34;;;;;;;8.60;4.35;;;;;;;;;;2064812;28;20034;-67
2024/02/25 01:35:53;;;;;;;7.57;4.50;;;;;;;;;;2067142;28;20030;-67
2024/02/25 01:37:12;;;;;;;8.65;4.18;;;;;;;;;;2064151;28;20491;-67
2024/02/25 01:38:32;;;;;;;7.35;4.15;;;;;;;;;;2067776;28;20041;-67
2024/02/25 01:39:51;;;;;;;7.45;4.55;;;;;;;;;;2067885;28;20030;-67
2024/02/25 01:41:10;;;;;;;7.90;4.00;;;;;;;;;;2064790;28;20027;-68
2024/02/25 01:42:29;;;;;;;9.23;4.50;;;;;;;;;;2066500;28;20033;-67
2024/02/25 01:43:48;;;;;;;10.65;5.07;;;;;;;;;;2067814;28;20117;-68
2024/02/25 01:45:08;;;;;;;7.13;4.50;;;;;;;;;;2065563;28;20038;-67
2024/02/25 01:46:27;;;;;;;9.75;4.80;;;;;;;;;;2068687;28;20108;-68
2024/02/25 01:47:46;;;;;;;7.13;4.75;;;;;;;;;;2069267;28;20046;-68
2024/02/25 01:49:05;;;;;;;6.88;4.63;;;;;;;;;;2065615;28;20407;-68
2024/02/25 01:50:23;;;;;;;9.45;5.07;;;;;;;;;;2068042;28;20037;-68
2024/02/25 01:51:43;;;;;;;7.57;4.50;;;;;;;;;;2068487;28;20037;-68
2024/02/25 01:53:02;;;;;;;7.28;4.43;;;;;;;;;;2064063;28;20507;-67
2024/02/25 01:54:21;;;;;;;6.55;4.28;;;;;;;;;;2067406;28;20034;-68
2024/02/25 01:55:42;;;;;;;11.27;4.43;;;;;;;;;;2067513;28;20057;-68
2024/02/25 01:57:01;;;;;;;8.00;4.25;;;;;;;;;;2066296;28;20021;-68
2024/02/25 01:58:20;;;;;;;9.25;4.88;;;;;;;;;;2068296;28;20034;-68
2024/02/25 01:59:40;;;;;;;8.40;4.78;;;;;;;;;;2066266;28;20554;-67
2024/02/25 02:01:01;;;;;;;6.05;4.40;;;;;;;;;;2063708;28;20035;-68
2024/02/25 02:02:20;;;;;;;9.75;4.90;;;;;;;;;;2069683;28;20029;-68
2024/02/25 02:03:40;;;;;;;7.57;4.80;;;;;;;;;;2068958;28;20473;-68
2024/02/25 02:04:59;;;;;;;6.50;4.55;;;;;;;;;;2064320;28;20031;-67
2024/02/25 02:06:18;;;;;;;7.90;5.30;;;;;;;;;;2068199;28;20433;-68
2024/02/25 02:07:38;;;;;;;8.57;5.00;;;;;;;;;;2068512;28;20042;-68
2024/02/25 02:08:57;;;;;;;8.00;5.35;;;;;;;;;;2068356;28;20149;-66
2024/02/25 02:10:15;;;;;;;7.47;4.85;;;;;;;;;;2066162;28;20034;-67
2024/02/25 02:11:34;;;;;;;9.07;5.13;;;;;;;;;;2068016;28;20039;-67
2024/02/25 02:12:54;;;;;;;6.78;5.10;;;;;;;;;;2066398;28;20020;-67
2024/02/25 02:14:13;;;;;;;5.60;4.85;;;;;;;;;;2066061;28;20034;-67
2024/02/25 02:15:32;;;;;;;13.07;5.85;;;;;;;;;;2065817;28;20430;-69
2024/02/25 02:16:51;;;;;;;8.07;5.05;;;;;;;;;;2065147;28;20038;-67
2024/02/25 02:18:12;;;;;;;11.00;5.80;;;;;;;;;;2067853;28;20033;-67
2024/02/25 02:19:30;;;;;;;13.95;5.82;;;;;;;;;;2065742;28;20619;-67
2024/02/25 02:20:49;;;;;;;10.35;5.93;;;;;;;;;;2066212;28;20033;-68
2024/02/25 02:22:08;;;;;;;8.20;5.30;;;;;;;;;;2068712;28;20113;-67
2024/02/25 02:23:27;;;;;;;11.85;6.13;;;;;;;;;;2066685;28;20041;-67
2024/02/25 02:24:46;;;;;;;7.85;5.47;;;;;;;;;;2066826;28;20053;-69
2024/02/25 02:26:06;;;;;;;15.65;6.72;;;;;;;;;;2072615;28;20021;-66
2024/02/25 02:27:25;;;;;;;8.73;6.15;;;;;;;;;;2069140;28;20030;-67
2024/02/25 02:28:44;;;;;;;10.43;6.78;;;;;;;;;;2065910;28;20483;-67
2024/02/25 02:30:04;;;;;;;8.95;5.68;;;;;;;;;;2067575;28;20038;-67
2024/02/25 02:31:23;;;;;;;12.73;6.03;;;;;;;;;;2065522;28;20428;-67
2024/02/25 02:32:42;;;;;;;8.43;6.15;;;;;;;;;;2064394;28;20030;-67
2024/02/25 02:34:01;;;;;;;11.73;6.22;;;;;;;;;;2067936;28;20018;-66
2024/02/25 02:35:20;;;;;;;16.65;6.68;;;;;;;;;;2064511;28;20492;-67
2024/02/25 02:36:40;;;;;;;10.70;5.53;;;;;;;;;;2065553;28;20125;-67
2024/02/25 02:37:59;;;;;;;11.07;6.30;;;;;;;;;;2067665;28;20765;-68
2024/02/25 02:39:18;;;;;;;15.20;6.32;;;;;;;;;;2062281;28;20042;-67
2024/02/25 02:40:37;;;;;;;14.10;6.15;;;;;;;;;;2067680;28;20026;-67
2024/02/25 02:42:00;;;;;;;12.60;6.72;;;;;;;;;;2066991;28;20053;-67
2024/02/25 02:43:20;;;;;;;12.98;6.30;;;;;;;;;;2065358;28;20110;-67
2024/02/25 02:44:45;;;;;;;7.68;6.00;;;;;;;;;;2067599;28;20038;-66
2024/02/25 02:46:04;;;;;;;13.60;6.68;;;;;;;;;;2067420;28;20034;-66
2024/02/25 02:47:24;;;;;;;7.85;6.05;;;;;;;;;;2066235;28;20033;-66
2024/02/25 02:48:43;;;;;;;12.82;5.85;;;;;;;;;;2066482;28;20511;-67
2024/02/25 02:50:03;;;;;;;9.25;6.30;;;;;;;;;;2066290;28;20034;-67
2024/02/25 02:51:22;;;;;;;10.00;6.20;;;;;;;;;;2064854;28;20034;-67
2024/02/25 02:52:40;;;;;;;13.40;5.43;;;;;;;;;;2065333;28;20124;-66
2024/02/25 02:54:02;;;;;;;15.43;6.22;;;;;;;;;;2067611;28;20116;-66
2024/02/25 02:55:22;;;;;;;8.68;5.57;;;;;;;;;;2065152;28;20054;-68
2024/02/25 02:56:41;;;;;;;12.25;6.00;;;;;;;;;;2066531;28;20167;-66
2024/02/25 02:58:00;;;;;;;10.30;5.68;;;;;;;;;;2062980;28;20113;-65
2024/02/25 02:59:20;;;;;;;9.13;6.10;;;;;;;;;;2064480;28;20113;-66
2024/02/25 03:00:39;;;;;;;12.60;5.28;;;;;;;;;;2065887;28;20058;-65
2024/02/25 03:01:58;;;;;;;12.52;5.70;;;;;;;;;;2067719;28;20026;-66
2024/02/25 03:03:17;;;;;;;12.18;5.57;;;;;;;;;;2070388;28;20077;-67
2024/02/25 03:04:36;;;;;;;12.05;5.57;;;;;;;;;;2065110;28;20035;-65
2024/02/25 03:05:55;;;;;;;7.78;5.40;;;;;;;;;;2066643;28;20494;-67
2024/02/25 03:07:14;;;;;;;11.80;5.45;;;;;;;;;;2067707;28;20121;-66
2024/02/25 03:08:33;;;;;;;10.32;5.63;;;;;;;;;;2067059;28;20026;-66
2024/02/25 03:09:52;;;;;;;13.90;5.90;;;;;;;;;;2067635;28;20030;-66
2024/02/25 03:11:11;;;;;;;8.32;5.28;;;;;;;;;;2064590;28;20022;-66
2024/02/25 03:12:30;;;;;;;11.90;5.45;;;;;;;;;;2068487;28;20076;-66
2024/02/25 03:13:49;;;;;;;12.38;5.53;;;;;;;;;;2068956;28;20022;-66
2024/02/25 03:15:08;;;;;;;9.52;5.18;;;;;;;;;;2066912;28;20472;-66
2024/02/25 03:16:27;;;;;;;12.77;5.38;;;;;;;;;;2069306;28;20117;-66
2024/02/25 03:17:46;;;;;;;10.07;5.68;;;;;;;;;;2068290;28;20387;-66
2024/02/25 03:19:05;;;;;;;7.20;4.72;;;;;;;;;;2066687;28;20027;-66
2024/02/25 03:20:24;;;;;;;6.22;4.65;;;;;;;;;;2070355;28;20030;-66
2024/02/25 03:21:43;;;;;;;7.70;5.05;;;;;;;;;;2069338;28;20026;-67
2024/02/25 03:23:02;;;;;;;10.63;5.40;;;;;;;;;;2067890;28;20506;-66
2024/02/25 03:24:21;;;;;;;7.82;4.80;;;;;;;;;;2068089;28;20479;-66
2024/02/25 03:25:40;;;;;;;7.80;5.28;;;;;;;;;;2069216;28;20038;-66
2024/02/25 03:27:00;;;;;;;9.77;4.97;;;;;;;;;;2066540;28;20026;-66
2024/02/25 03:28:19;;;;;;;8.82;5.10;;;;;;;;;;2068448;28;20034;-66
2024/02/25 03:29:39;;;;;;;12.80;4.88;;;;;;;;;;2068353;28;20026;-67
2024/02/25 03:30:58;;;;;;;11.00;5.07;;;;;;;;;;2067318;28;20068;-67
2024/02/25 03:32:17;;;;;;;11.23;5.43;;;;;;;;;;2068947;28;20502;-66
2024/02/25 03:33:36;;;;;;;11.05;4.57;;;;;;;;;;2069322;28;20046;-67
2024/02/25 03:34:55;;;;;;;7.75;4.70;;;;;;;;;;2065886;28;20058;-66
2024/02/25 03:36:14;;;;;;;11.18;4.22;;;;;;;;;;2067700;28;20034;-66
2024/02/25 03:37:33;;;;;;;10.02;5.00;;;;;;;;;;2066884;28;20022;-66
2024/02/25 03:38:52;;;;;;;8.88;4.95;;;;;;;;;;2067510;28;20939;-66
2024/02/25 03:40:11;;;;;;;5.88;4.00;;;;;;;;;;2069868;28;20030;-66
2024/02/25 03:41:30;;;;;;;7.47;3.85;;;;;;;;;;2067536;28;20026;-66
2024/02/25 03:42:49;;;;;;;10.40;4.72;;;;;;;;;;2066737;28;20458;-66
2024/02/25 03:44:08;;;;;;;8.88;4.18;;;;;;;;;;2068107;28;20105;-66
2024/02/25 03:45:27;;;;;;;10.27;4.80;;;;;;;;;;2065841;28;20499;-66
2024/02/25 03:46:46;;;;;;;6.47;4.80;;;;;;;;;;2068184;28;20045;-66
2024/02/25 03:48:05;;;;;;;6.43;4.25;;;;;;;;;;2069370;28;20407;-66
2024/02/25 03:49:24;;;;;;;6.90;4.40;;;;;;;;;;2068593;28;20038;-66
2024/02/25 03:50:43;;;;;;;12.63;4.35;;;;;;;;;;2067555;28;20030;-66
2024/02/25 03:52:02;;;;;;;13.07;4.78;;;;;;;;;;2067809;28;20031;-66
2024/02/25 03:53:21;;;;;;;7.32;4.13;;;;;;;;;;2068407;28;20026;-66
2024/02/25 03:54:40;;;;;;;11.93;4.95;;;;;;;;;;2066962;28;20030;-66
2024/02/25 03:55:58;;;;;;;13.82;4.53;;;;;;;;;;2068808;28;20026;-66
2024/02/25 03:57:17;;;;;;;7.20;4.60;;;;;;;;;;2067177;28;20043;-67
2024/02/25 03:58:36;;;;;;;7.30;4.47;;;;;;;;;;2067099;28;20034;-66
2024/02/25 03:59:55;;;;;;;10.35;4.47;;;;;;;;;;2068139;28;20110;-67
2024/02/25 04:01:14;;;;;;;6.88;4.35;;;;;;;;;;2066942;28;20441;-66
2024/02/25 04:02:33;;;;;;;12.43;4.95;;;;;;;;;;2068119;28;20030;-66
2024/02/25 04:03:52;;;;;;;8.55;4.20;;;;;;;;;;2068447;28;20034;-67
2024/02/25 04:05:11;;;;;;;8.45;4.72;;;;;;;;;;2067069;28;20555;-66
2024/02/25 04:06:31;;;;;;;5.88;4.60;;;;;;;;;;2068299;28;20117;-67
2024/02/25 04:07:50;;;;;;;7.05;3.78;;;;;;;;;;2069236;28;20042;-66
2024/02/25 04:09:09;;;;;;;10.82;4.55;;;;;;;;;;2066074;28;20058;-67
2024/02/25 04:10:28;;;;;;;11.07;4.38;;;;;;;;;;2070077;28;20025;-67
2024/02/25 04:11:47;;;;;;;9.43;4.43;;;;;;;;;;2068327;28;20038;-66
2024/02/25 04:13:07;;;;;;;6.10;4.25;;;;;;;;;;2067400;28;20480;-66
2024/02/25 04:14:26;;;;;;;6.80;4.15;;;;;;;;;;2069945;28;20521;-67
2024/02/25 04:15:44;;;;;;;4.90;3.95;;;;;;;;;;2068498;28;20445;-66
2024/02/25 04:17:03;;;;;;;7.15;3.78;;;;;;;;;;2066538;28;20022;-66
2024/02/25 04:18:22;;;;;;;12.25;4.95;;;;;;;;;;2068636;28;20034;-66
2024/02/25 04:19:41;;;;;;;8.48;4.22;;;;;;;;;;2070609;28;20065;-66
2024/02/25 04:21:00;;;;;;;9.90;3.80;;;;;;;;;;2068355;28;20035;-66
2024/02/25 04:22:19;;;;;;;6.55;3.63;;;;;;;;;;2068913;28;20457;-66
2024/02/25 04:23:38;;;;;;;7.43;4.00;;;;;;;;;;2069488;28;20030;-66
2024/02/25 04:24:57;;;;;;;8.50;4.18;;;;;;;;;;2068212;28;20811;-66
2024/02/25 04:26:16;;;;;;;4.72;3.85;;;;;;;;;;2069006;28;20022;-66
2024/02/25 04:27:35;;;;;;;7.75;3.65;;;;;;;;;;2067441;28;20117;-66
2024/02/25 04:28:54;;;;;;;6.68;3.95;;;;;;;;;;2066342;28;20031;-67
2024/02/25 04:30:13;;;;;;;4.65;4.10;;;;;;;;;;2069673;28;20022;-67
2024/02/25 04:31:32;;;;;;;8.95;4.72;;;;;;;;;;2067456;28;20038;-66
2024/02/25 04:32:51;;;;;;;12.55;4.35;;;;;;;;;;2063633;28;20617;-66
2024/02/25 04:34:10;;;;;;;8.15;4.07;;;;;;;;;;2068221;28;20113;-66
2024/02/25 04:35:30;;;;;;;6.05;4.00;;;;;;;;;;2067745;28;20062;-66
2024/02/25 04:36:49;;;;;;;10.23;3.72;;;;;;;;;;2066445;28;20026;-66
2024/02/25 04:38:11;;;;;;;8.15;3.97;;;;;;;;;;2068121;28;20022;-66
2024/02/25 04:39:30;;;;;;;10.50;3.92;;;;;;;;;;2065302;28;20105;-66
2024/02/25 04:40:53;;;;;;;6.43;3.90;;;;;;;;;;2067556;28;20038;-66
2024/02/25 04:42:12;;;;;;;4.93;3.72;;;;;;;;;;2068112;28;20025;-67
2024/02/25 04:43:35;;;;;;;7.57;3.92;;;;;;;;;;2066102;28;20037;-67
2024/02/25 04:44:54;;;;;;;7.10;3.88;;;;;;;;;;2063824;28;21149;-67
2024/02/25 04:46:13;;;;;;;7.25;4.10;;;;;;;;;;2068040;28;20026;-66
2024/02/25 04:47:32;;;;;;;9.30;4.05;;;;;;;;;;2065963;28;20034;-67
2024/02/25 04:48:51;;;;;;;9.50;4.53;;;;;;;;;;2065811;28;20046;-66
2024/02/25 04:50:10;;;;;;;8.20;4.07;;;;;;;;;;2069177;28;20038;-67
2024/02/25 04:51:28;;;;;;;9.95;4.40;;;;;;;;;;2063370;28;20069;-67
2024/02/25 04:52:47;;;;;;;6.43;4.15;;;;;;;;;;2067136;28;20460;-67
2024/02/25 04:54:06;;;;;;;8.30;4.68;;;;;;;;;;2070573;28;20487;-67
2024/02/25 04:55:25;;;;;;;15.25;4.50;;;;;;;;;;2065935;28;20030;-66
2024/02/25 04:56:44;;;;;;;6.30;4.65;;;;;;;;;;2065643;28;20524;-67
2024/02/25 04:58:07;;;;;;;11.25;4.93;;;;;;;;;;2070992;28;20030;-67
2024/02/25 04:59:26;;;;;;;;;;;;;;;;;;2068166;28;20030;-67
2024/02/25 05:00:45;;;;;;;5.90;4.40;;;;;;;;;;2068260;28;20282;-67
2024/02/25 05:02:04;;;;;;;9.95;4.65;;;;;;;;;;2068646;28;20034;-67
2024/02/25 05:03:23;;;;;;;8.50;4.47;;;;;;;;;;2066699;28;21069;-67
2024/02/25 05:04:42;;;;;;;7.28;4.75;;;;;;;;;;2066601;28;20046;-68
2024/02/25 05:06:01;;;;;;;8.02;4.65;;;;;;;;;;2066694;28;20038;-68
2024/02/25 05:07:20;;;;;;;10.68;5.10;;;;;;;;;;2064032;28;20041;-68
2024/02/25 05:08:39;;;;;;;6.80;5.22;;;;;;;;;;2063479;28;20031;-67
2024/02/25 05:09:58;;;;;;;7.05;5.18;;;;;;;;;;2070707;28;20037;-67
2024/02/25 05:11:17;;;;;;;12.15;5.43;;;;;;;;;;2067698;28;20038;-67
2024/02/25 05:12:36;;;;;;;7.97;5.13;;;;;;;;;;2065889;28;20034;-67
2024/02/25 05:13:55;;;;;;;9.57;5.40;;;;;;;;;;2068670;28;20034;-67
2024/02/25 05:15:14;;;;;;;7.32;5.10;;;;;;;;;;2067704;28;20027;-67
2024/02/25 05:16:33;;;;;;;8.43;5.07;;;;;;;;;;2068151;28;20022;-67
2024/02/25 05:17:52;;;;;;;8.57;4.80;;;;;;;;;;2068615;28;20030;-67
2024/02/25 05:19:11;;;;;;;8.15;5.32;;;;;;;;;;2070066;28;20028;-67
2024/02/25 05:20:30;;;;;;;16.25;6.22;;;;;;;;;;2071682;28;20042;-67
2024/02/25 05:21:49;;;;;;;11.35;5.63;;;;;;;;;;2069490;28;20557;-67
2024/02/25 05:23:08;;;;;;;10.93;5.78;;;;;;;;;;2066944;28;20117;-67
2024/02/25 05:24:27;;;;;;;13.50;6.40;;;;;;;;;;2066733;28;20076;-68
2024/02/25 05:25:46;;;;;;;10.05;5.90;;;;;;;;;;2068673;28;20026;-67
2024/02/25 05:27:05;;;;;;;9.80;5.95;;;;;;;;;;2068027;28;20022;-67
2024/02/25 05:28:24;;;;;;;13.15;7.03;;;;;;;;;;2069274;28;20403;-67
2024/02/25 05:29:43;;;;;;;11.05;6.45;;;;;;;;;;2068639;28;20381;-68
2024/02/25 05:31:03;;;;;;;16.77;7.35;;;;;;;;;;2066544;28;20108;-68
2024/02/25 05:32:22;;;;;;;13.45;6.32;;;;;;;;;;2066348;28;20511;-67
2024/02/25 05:33:41;;;;;;;11.90;6.72;;;;;;;;;;2068452;28;20479;-67
2024/02/25 05:35:00;;;;;;;10.85;7.13;;;;;;;;;;2065472;28;20076;-68
2024/02/25 05:36:22;;;;;;;10.00;6.88;;;;;;;;;;2068190;28;20026;-68
2024/02/25 05:37:42;;;;;;;11.68;7.10;;;;;;;;;;2069707;28;20108;-67
2024/02/25 05:39:03;;;;;;;14.57;8.52;;;;;;;;;;2070947;28;20535;-67
2024/02/25 05:40:22;;;;;;;13.90;7.80;;;;;;;;;;2067166;28;20030;-67
2024/02/25 05:41:41;;;;;;;11.77;7.60;;;;;;;;;;2070166;28;20026;-68
2024/02/25 05:43:00;;;;;;;12.77;8.02;;;;;;;;;;2065514;28;20034;-67
2024/02/25 05:44:19;;;;;;;14.10;7.78;;;;;;;;;;2068362;28;20105;-68
2024/02/25 05:45:39;;;;;;;13.73;8.60;;;;;;;;;;2069918;28;20109;-68
2024/02/25 05:46:58;;;;;;;15.35;7.90;;;;;;;;;;2064617;28;20491;-67
2024/02/25 05:48:17;;;;;;;11.13;8.20;;;;;;;;;;2069440;28;20415;-67
2024/02/25 05:49:39;;;;;;;15.02;8.32;;;;;;;;;;2069542;28;20112;-67
2024/02/25 05:50:58;;;;;;;10.52;8.05;;;;;;;;;;2066699;28;20491;-67
2024/02/25 05:52:17;;;;;;;18.45;8.88;;;;;;;;;;2068875;28;20038;-67
2024/02/25 05:53:36;;;;;;;18.20;8.50;;;;;;;;;;2068352;28;20069;-68
2024/02/25 05:54:56;;;;;;;17.88;9.02;;;;;;;;;;2063939;28;20062;-67
2024/02/25 05:56:15;;;;;;;17.02;7.50;;;;;;;;;;2068132;28;20030;-67
2024/02/25 05:57:34;;;;;;;16.75;7.75;;;;;;;;;;2071312;28;20030;-67
2024/02/25 05:58:53;;;;;;;15.65;8.02;;;;;;;;;;2066100;28;20566;-67
2024/02/25 06:00:12;;;;;;;10.00;7.25;;;;;;;;;;2073932;28;20033;-67
2024/02/25 06:01:35;;;;;;;18.75;8.32;;;;;;;;;;2069681;28;20026;-67
2024/02/25 06:02:54;;;;;;;15.98;7.50;;;;;;;;;;2065575;28;20460;-67
2024/02/25 06:04:13;;;;;;;13.00;7.53;;;;;;;;;;2069879;28;20034;-67
2024/02/25 06:05:32;;;;;;;10.57;7.72;;;;;;;;;;2068781;28;20033;-67
2024/02/25 06:06:52;;;;;;;11.18;7.97;;;;;;;;;;2065065;28;20029;-67
2024/02/25 06:08:11;;;;;;;14.48;7.95;;;;;;;;;;2067882;28;20029;-67
2024/02/25 06:09:30;;;;;;;16.63;8.32;;;;;;;;;;2068197;28;20042;-68
2024/02/25 06:10:50;;;;;;;15.23;7.72;;;;;;;;;;2065456;28;20029;-68
2024/02/25 06:12:09;;;;;;;16.13;8.50;;;;;;;;;;2069920;28;20034;-67
2024/02/25 06:13:28;;;;;;;16.83;8.07;;;;;;;;;;2067786;28;20559;-68
2024/02/25 06:14:47;;;;;;;10.35;7.47;;;;;;;;;;2065608;28;20034;-67
2024/02/25 06:16:06;;;;;;;15.55;7.90;;;;;;;;;;2070149;28;20101;-68
2024/02/25 06:17:25;;;;;;;17.10;7.93;;;;;;;;;;2069541;28;20026;-67
2024/02/25 06:18:43;;;;;;;17.83;8.98;;;;;;;;;;2065152;28;20035;-67
2024/02/25 06:20:03;;;;;;;13.40;8.35;;;;;;;;;;2067241;28;20030;-68
2024/02/25 06:21:22;;;;;;;21.00;9.30;;;;;;;;;;2066522;28;20109;-68
2024/02/25 06:22:41;;;;;;;16.27;8.93;;;;;;;;;;2067993;28;20483;-67
2024/02/25 06:24:00;;;;;;;13.30;8.38;;;;;;;;;;2069283;28;20034;-67
2024/02/25 06:25:20;;;;;;;16.77;9.27;;;;;;;;;;2064455;28;20030;-67
2024/02/25 06:26:42;;;;;;;14.02;9.02;;;;;;;;;;2066112;28;20027;-67
2024/02/25 06:28:01;;;;;;;16.10;9.38;;;;;;;;;;2070618;28;20066;-67
2024/02/25 06:29:20;;;;;;;17.27;9.02;;;;;;;;;;2067806;28;20129;-67
2024/02/25 06:30:39;;;;;;;18.63;8.65;;;;;;;;;;2066082;28;20498;-67
2024/02/25 06:31:59;;;;;;;17.48;8.80;;;;;;;;;;2069017;28;20116;-67
2024/02/25 06:33:18;;;;;;;16.10;8.77;;;;;;;;;;2067590;28;20034;-67
2024/02/25 06:34:37;;;;;;;22.27;8.75;;;;;;;;;;2066275;28;20030;-67
2024/02/25 06:35:56;;;;;;;20.40;9.15;;;;;;;;;;2072992;28;20024;-67
2024/02/25 06:37:15;;;;;;;14.02;8.57;;;;;;;;;;2065511;28;20023;-68
2024/02/25 06:38:35;;;;;;;13.25;8.23;;;;;;;;;;2066933;28;20023;-67
2024/02/25 06:39:55;;;;;;;16.88;9.88;;;;;;;;;;2068440;28;20027;-67
2024/02/25 06:41:18;;;;;;;10.32;9.00;;;;;;;;;;2065848;28;20019;-68
2024/02/25 06:42:37;;;;;;;18.55;8.85;;;;;;;;;;2064579;28;20038;-67
2024/02/25 06:43:56;;;;;;;12.43;8.23;;;;;;;;;;2067303;28;20406;-67
2024/02/25 06:45:15;;;;;;;15.27;9.02;;;;;;;;;;2066629;28;20068;-67
2024/02/25 06:46:38;;;;;;;11.10;8.65;;;;;;;;;;2068023;28;20407;-67
2024/02/25 06:47:57;;;;;;;14.02;8.88;;;;;;;;;;2068907;28;20442;-67
2024/02/25 06:49:16;;;;;;;16.45;9.00;;;;;;;;;;2065487;28;20038;-67
2024/02/25 06:50:35;;;;;;;14.57;9.13;;;;;;;;;;2065566;28;20504;-67
2024/02/25 06:51:54;;;;;;;13.45;9.68;;;;;;;;;;2068308;28;20038;-67
2024/02/25 06:53:14;;;;;;;16.13;8.45;;;;;;;;;;2066693;28;20487;-67
2024/02/25 06:54:33;;;;;;;14.88;9.50;;;;;;;;;;2067903;28;20038;-67
2024/02/25 06:55:51;;;;;;;14.52;9.77;;;;;;;;;;2071559;28;20460;-67
2024/02/25 06:57:15;;;;;;;13.32;8.85;;;;;;;;;;2066244;28;20433;-68
2024/02/25 06:58:34;;;;;;;12.15;8.23;;;;;;;;;;2066461;28;20515;-67
2024/02/25 06:59:53;;;;;;;18.58;9.93;;;;;;;;;;2069053;28;20494;-68
2024/02/25 07:01:15;;;;;;;16.92;9.25;;;;;;;;;;2066335;28;20036;-68
2024/02/25 07:02:36;;;;;;;16.75;8.93;;;;;;;;;;2062651;28;20076;-66
2024/02/25 07:03:55;;;;;;;20.10;9.18;;;;;;;;;;2066925;28;20042;-67
2024/02/25 07:05:14;;;;;;;14.13;8.35;;;;;;;;;;2066061;28;20037;-67
2024/02/25 07:06:33;;;;;;;23.27;9.05;;;;;;;;;;2069232;28;20486;-67
2024/02/25 07:07:53;;;;;;;17.05;8.85;;;;;;;;;;2069149;28;20037;-67
2024/02/25 07:09:13;;;;;;;13.43;9.15;;;;;;;;;;2068339;28;20026;-67
2024/02/25 07:10:32;;;;;;;12.20;8.73;;;;;;;;;;2069880;28;20121;-67
2024/02/25 07:11:51;;;;;;;15.00;9.05;;;;;;;;;;2069726;28;20022;-67
2024/02/25 07:13:10;;;;;;;13.23;8.20;;;;;;;;;;2070191;28;20024;-68
2024/02/25 07:14:30;;;;;;;15.73;9.18;;;;;;;;;;2071505;28;20510;-68
2024/02/25 07:15:49;;;;;;;22.55;9.02;;;;;;;;;;2070542;28;20046;-68
2024/02/25 07:17:08;;;;;;;15.27;9.10;;;;;;;;;;2068070;28;20113;-66
2024/02/25 07:18:27;;;;;;;13.25;8.75;;;;;;;;;;2068815;28;20410;-67
2024/02/25 07:19:46;;;;;;;19.85;8.98;;;;;;;;;;2068605;28;20030;-67
2024/02/25 07:21:09;;;;;;;18.83;8.77;;;;;;;;;;2070202;28;20478;-67
2024/02/25 07:22:28;;;;;;;13.10;9.02;;;;;;;;;;2068788;28;20034;-67
2024/02/25 07:23:47;;;;;;;13.50;8.95;;;;;;;;;;2069120;28;20026;-67
2024/02/25 07:25:06;;;;;;;16.20;8.48;;;;;;;;;;2069359;28;20958;-67
2024/02/25 07:26:25;;;;;;;14.93;9.00;;;;;;;;;;2067391;28;20035;-67
2024/02/25 07:27:45;;;;;;;16.55;8.90;;;;;;;;;;2069661;28;20485;-67
2024/02/25 07:29:03;;;;;;;15.57;9.40;;;;;;;;;;2070389;28;20030;-67
2024/02/25 07:30:22;;;;;;;14.40;8.70;;;;;;;;;;2070304;28;21252;-67
2024/02/25 07:31:42;;;;;;;18.33;8.93;;;;;;;;;;2068361;28;20479;-66
2024/02/25 07:33:02;;;;;;;12.68;8.82;;;;;;;;;;2068869;28;20041;-67
2024/02/25 07:34:21;;;;;;;15.50;8.57;;;;;;;;;;2070230;28;20018;-67
2024/02/25 07:35:40;;;;;;;12.95;8.02;;;;;;;;;;2068922;28;20357;-69
2024/02/25 07:36:58;;;;;;;15.02;8.85;;;;;;;;;;2117460;27;20063;-67
2024/02/25 07:38:17;;;;;;;16.63;8.40;;;;;;;;;;2090944;27;20026;-67
2024/02/25 07:39:37;;;;;;;15.63;8.98;;;;;;;;;;2068973;28;20022;-67
2024/02/25 07:40:56;;;;;;;13.20;8.30;;;;;;;;;;2066939;28;20014;-67
2024/02/25 07:42:15;;;;;;;15.13;8.35;;;;;;;;;;2068604;28;20452;-67
2024/02/25 07:43:34;;;;;;;12.10;8.23;;;;;;;;;;2069699;28;21347;-67
2024/02/25 07:44:53;;;;;;;19.48;8.80;;;;;;;;;;2070166;28;20050;-67
2024/02/25 07:46:13;;;;;;;17.83;8.25;;;;;;;;;;2067511;28;20034;-67
2024/02/25 07:47:32;;;;;;;14.25;8.32;;;;;;;;;;2067431;28;20038;-66
2024/02/25 07:48:51;;;;;;;17.60;9.63;;;;;;;;;;2068132;28;20029;-67
2024/02/25 07:50:11;;;;;;;16.70;9.00;;;;;;;;;;2067517;28;20113;-67
2024/02/25 07:51:34;;;;;;;12.25;8.32;;;;;;;;;;2069852;28;20125;-67